Time;durP1;ratioP1;P1;durP2;ratioP2;P2;SDS_P1;SDS_P2;PMS_P1;PMS_P2;Temp;Humidity;BMP_temperature;BMP_pressure;BME280_temperature;BME280_humidity;BME280_pressure;Samples;Min_cycle;Max_cycle;Signal;HPM_P1;HPM_P2
2022/07/21 00:01:20;;;;;;;8.27;3.85;;;20.10;99.90;;;;;;5041360;28;20472;-58
2022/07/21 00:03:45;;;;;;;6.68;3.33;;;20.10;99.90;;;;;;5036689;28;20037;-59
2022/07/21 00:06:11;;;;;;;6.25;3.10;;;20.10;99.90;;;;;;5034275;28;20045;-58
2022/07/21 00:08:37;;;;;;;9.77;3.65;;;20.00;99.90;;;;;;5029028;28;20046;-59
2022/07/21 00:11:02;;;;;;;7.03;3.50;;;20.00;99.90;;;;;;5042026;28;20017;-58
2022/07/21 00:13:28;;;;;;;7.60;3.30;;;20.00;99.90;;;;;;5040535;28;20048;-58
2022/07/21 00:15:54;;;;;;;7.90;4.20;;;19.90;99.90;;;;;;5036166;28;20080;-58
2022/07/21 00:18:23;;;;;;;8.38;4.00;;;19.80;99.90;;;;;;5027721;28;20029;-58
2022/07/21 00:20:49;;;;;;;6.95;3.97;;;19.60;99.90;;;;;;5031913;28;20028;-58
2022/07/21 00:23:16;;;;;;;6.45;3.63;;;19.50;99.90;;;;;;5026084;28;20109;-58
2022/07/21 00:25:42;;;;;;;8.10;4.07;;;19.20;99.90;;;;;;5038528;28;20112;-58
2022/07/21 00:28:08;;;;;;;7.05;3.55;;;19.20;99.90;;;;;;5036814;28;20029;-58
2022/07/21 00:30:34;;;;;;;6.75;4.47;;;19.10;99.90;;;;;;5032048;28;20029;-58
2022/07/21 00:32:59;;;;;;;7.97;4.25;;;19.10;99.90;;;;;;5039420;28;20112;-58
2022/07/21 00:35:25;;;;;;;5.88;4.55;;;19.00;99.90;;;;;;5030736;28;20362;-59
2022/07/21 00:37:51;;;;;;;11.68;4.68;;;18.90;99.90;;;;;;5040790;28;20092;-58
2022/07/21 00:40:17;;;;;;;8.80;3.97;;;18.80;99.90;;;;;;5035887;28;20021;-58
2022/07/21 00:42:44;;;;;;;6.60;4.15;;;18.80;99.90;;;;;;5039477;28;20029;-62
2022/07/21 00:45:11;;;;;;;6.30;4.25;;;18.70;99.90;;;;;;5032283;28;20477;-58
2022/07/21 00:47:37;;;;;;;5.07;4.53;;;18.70;99.90;;;;;;5032103;28;20026;-58
2022/07/21 00:50:07;;;;;;;6.88;3.65;;;18.60;99.90;;;;;;5034980;28;20033;-58
2022/07/21 00:52:33;;;;;;;9.05;5.07;;;18.70;99.90;;;;;;5030738;28;20389;-57
2022/07/21 00:54:59;;;;;;;9.85;4.63;;;18.60;99.90;;;;;;5038809;28;20030;-58
2022/07/21 00:57:25;;;;;;;6.05;4.40;;;18.70;99.90;;;;;;5030298;28;20056;-58
2022/07/21 00:59:51;;;;;;;9.30;4.60;;;18.70;99.90;;;;;;5040322;28;20029;-57
2022/07/21 01:02:16;;;;;;;6.82;4.00;;;18.50;99.90;;;;;;5037611;28;20013;-58
2022/07/21 01:04:42;;;;;;;8.73;4.68;;;18.60;99.90;;;;;;5033349;28;20033;-57
2022/07/21 01:07:08;;;;;;;10.95;4.25;;;18.60;99.90;;;;;;5032833;28;20377;-58
2022/07/21 01:09:35;;;;;;;5.28;3.80;;;18.60;99.90;;;;;;5060244;28;20079;-58
2022/07/21 01:12:01;;;;;;;4.32;3.85;;;18.60;99.90;;;;;;5032553;28;20029;-58
2022/07/21 01:14:27;;;;;;;8.40;4.57;;;18.50;99.90;;;;;;5013031;28;20026;-58
2022/07/21 01:16:54;;;;;;;6.90;3.95;;;18.50;99.90;;;;;;5041609;28;20017;-59
2022/07/21 01:19:19;;;;;;;8.48;4.53;;;18.60;99.90;;;;;;5042884;28;20040;-58
2022/07/21 01:21:47;;;;;;;11.27;5.07;;;18.50;99.90;;;;;;5027944;28;20022;-58
2022/07/21 01:24:13;;;;;;;8.40;5.32;;;18.50;99.90;;;;;;5040480;28;20077;-58
2022/07/21 01:26:47;;;;;;;13.20;4.88;;;18.40;99.90;;;;;;5038379;28;20061;-59
2022/07/21 01:29:13;;;;;;;7.63;5.15;;;18.40;99.90;;;;;;5029783;28;20059;-58
2022/07/21 01:31:41;;;;;;;11.70;6.60;;;18.30;99.90;;;;;;5036207;28;20060;-58
2022/07/21 01:34:08;;;;;;;8.02;5.82;;;18.20;99.90;;;;;;5050591;28;20098;-58
2022/07/21 01:36:34;;;;;;;11.70;6.07;;;18.30;99.90;;;;;;5038507;28;20025;-58
2022/07/21 01:41:44;;;;;;;10.90;5.85;;;18.30;99.90;;;;;;5038352;28;20025;-58
2022/07/21 01:44:11;;;;;;;9.20;6.38;;;18.30;99.90;;;;;;5036806;28;20030;-58
2022/07/21 01:46:43;;;;;;;10.27;5.35;;;18.20;99.90;;;;;;5034854;28;20059;-58
2022/07/21 01:49:11;;;;;;;9.10;5.43;;;18.20;99.90;;;;;;5027098;28;20116;-59
2022/07/21 01:51:37;;;;;;;10.98;6.00;;;18.20;99.90;;;;;;5031204;28;20405;-59
2022/07/21 01:54:03;;;;;;;6.28;4.72;;;18.20;99.90;;;;;;5032225;28;20031;-59
2022/07/21 01:56:29;;;;;;;11.65;5.85;;;18.20;99.90;;;;;;5028459;28;20108;-58
2022/07/21 01:58:56;;;;;;;9.73;6.10;;;18.20;99.90;;;;;;5027405;28;20159;-58
2022/07/21 02:01:26;;;;;;;8.63;5.30;;;18.20;99.90;;;;;;5030064;28;20037;-57
2022/07/21 02:03:52;;;;;;;11.52;5.80;;;18.20;99.90;;;;;;5039786;28;20029;-57
2022/07/21 02:06:18;;;;;;;8.77;5.20;;;18.20;99.90;;;;;;5035662;28;20125;-57
2022/07/21 02:08:45;;;;;;;14.02;6.40;;;18.10;99.90;;;;;;5034040;28;20064;-58
2022/07/21 02:11:12;;;;;;;11.60;5.88;;;18.10;99.90;;;;;;5034466;28;20021;-59
2022/07/21 02:13:38;;;;;;;8.63;5.85;;;18.10;99.90;;;;;;5030751;28;20116;-58
2022/07/21 02:16:05;;;;;;;10.85;5.55;;;18.20;99.90;;;;;;5036570;28;20690;-59
2022/07/21 02:18:31;;;;;;;10.38;5.68;;;18.20;99.90;;;;;;5032277;28;20026;-58
2022/07/21 02:20:57;;;;;;;13.55;5.65;;;18.20;99.90;;;;;;5035573;28;20029;-58
2022/07/21 02:23:24;;;;;;;10.38;5.00;;;18.20;99.90;;;;;;5030024;28;20531;-58
2022/07/21 02:25:51;;;;;;;10.52;5.05;;;18.10;99.90;;;;;;5034613;28;20472;-58
2022/07/21 02:28:20;;;;;;;9.55;5.28;;;18.10;99.90;;;;;;5030677;28;20021;-58
2022/07/21 02:30:47;;;;;;;9.48;4.32;;;18.10;99.90;;;;;;5036045;28;20041;-59
2022/07/21 02:33:13;;;;;;;7.55;4.43;;;18.00;99.90;;;;;;5030453;28;20460;-58
2022/07/21 02:35:39;;;;;;;6.50;4.55;;;18.10;99.90;;;;;;5033114;28;20049;-59
2022/07/21 02:38:05;;;;;;;13.57;4.40;;;18.00;99.90;;;;;;5030789;28;20124;-57
2022/07/21 02:40:31;;;;;;;6.57;4.07;;;18.00;99.90;;;;;;5037499;28;20364;-58
2022/07/21 02:42:57;;;;;;;11.35;4.30;;;17.90;99.90;;;;;;5039494;28;20036;-58
2022/07/21 02:45:23;;;;;;;12.43;4.22;;;17.90;99.90;;;;;;5032640;28;20021;-58
2022/07/21 02:47:56;;;;;;;6.53;3.28;;;17.80;99.90;;;;;;5032211;28;20044;-58
2022/07/21 02:50:25;;;;;;;8.63;3.47;;;17.80;99.90;;;;;;5032514;28;20037;-57
2022/07/21 02:52:55;;;;;;;7.07;3.58;;;17.80;99.90;;;;;;5033587;28;20029;-58
2022/07/21 02:55:21;;;;;;;7.30;2.97;;;17.70;99.90;;;;;;5036799;28;20030;-58
2022/07/21 02:57:46;;;;;;;6.30;3.40;;;17.60;99.90;;;;;;5016886;28;20029;-58
2022/07/21 03:00:13;;;;;;;6.85;3.30;;;17.60;99.90;;;;;;5034872;28;20063;-59
2022/07/21 03:02:38;;;;;;;7.57;3.60;;;17.50;99.90;;;;;;5035152;28;20104;-58
2022/07/21 03:05:05;;;;;;;11.45;3.47;;;17.50;99.90;;;;;;5031994;28;20172;-58
2022/07/21 03:07:31;;;;;;;8.57;4.05;;;17.40;99.90;;;;;;5037305;28;20524;-58
2022/07/21 03:09:56;;;;;;;9.00;4.80;;;17.40;99.90;;;;;;5035236;28;20115;-59
2022/07/21 03:12:22;;;;;;;11.48;3.85;;;17.30;99.90;;;;;;5032240;28;20017;-58
2022/07/21 03:14:48;;;;;;;8.20;3.83;;;17.30;99.90;;;;;;5044456;28;20025;-58
2022/07/21 03:17:13;;;;;;;8.82;3.67;;;17.20;99.90;;;;;;5039815;28;20380;-58
2022/07/21 03:19:39;;;;;;;7.38;3.30;;;17.20;99.90;;;;;;5059892;28;20051;-59
2022/07/21 03:22:05;;;;;;;10.70;4.05;;;17.20;99.90;;;;;;5040072;28;20033;-59
2022/07/21 03:24:31;;;;;;;6.45;3.33;;;17.20;99.90;;;;;;5040900;28;20522;-59
2022/07/21 03:26:57;;;;;;;6.72;3.30;;;17.10;99.90;;;;;;5046747;28;20036;-58
2022/07/21 03:29:23;;;;;;;9.13;3.20;;;17.10;99.90;;;;;;5042508;28;20128;-57
2022/07/21 03:31:49;;;;;;;11.48;3.00;;;17.20;99.90;;;;;;5031364;28;20106;-58
2022/07/21 03:34:15;;;;;;;4.65;3.08;;;17.20;99.90;;;;;;5044115;28;20431;-58
2022/07/21 03:36:41;;;;;;;7.78;3.25;;;17.20;99.90;;;;;;5039889;28;20025;-58
2022/07/21 03:39:07;;;;;;;5.85;2.90;;;17.20;99.90;;;;;;5044957;28;20108;-58
2022/07/21 03:41:32;;;;;;;4.13;2.78;;;17.20;99.90;;;;;;5042747;28;20032;-58
2022/07/21 03:43:58;;;;;;;7.88;3.00;;;17.30;99.90;;;;;;5036262;28;20038;-58
2022/07/21 03:46:24;;;;;;;5.90;2.45;;;17.20;99.90;;;;;;5037819;28;20021;-58
2022/07/21 03:48:50;;;;;;;4.50;2.72;;;17.30;99.90;;;;;;5029706;28;20079;-58
2022/07/21 03:51:16;;;;;;;5.15;2.55;;;17.30;99.90;;;;;;5036838;28;20052;-58
2022/07/21 03:53:41;;;;;;;7.40;3.05;;;17.40;99.90;;;;;;5042235;28;20086;-58
2022/07/21 03:56:07;;;;;;;7.00;2.30;;;17.40;99.90;;;;;;5046534;28;20116;-58
2022/07/21 03:58:33;;;;;;;3.95;2.45;;;17.30;99.90;;;;;;5040112;28;20025;-57
2022/07/21 04:00:59;;;;;;;6.75;2.30;;;17.30;99.90;;;;;;5043408;28;20029;-58
2022/07/21 04:03:25;;;;;;;3.13;1.92;;;17.30;99.90;;;;;;5033629;28;20103;-57
2022/07/21 04:05:50;;;;;;;6.63;2.47;;;17.20;99.90;;;;;;5021565;28;20380;-58
2022/07/21 04:08:16;;;;;;;4.88;2.58;;;17.30;99.90;;;;;;5044710;28;20159;-59
2022/07/21 04:10:44;;;;;;;5.15;2.67;;;17.30;99.90;;;;;;5045697;28;20037;-60
2022/07/21 04:13:15;;;;;;;7.40;2.25;;;17.30;99.90;;;;;;5048651;28;20035;-57
2022/07/21 04:15:41;;;;;;;6.82;2.20;;;17.30;99.90;;;;;;5061327;28;20385;-58
2022/07/21 04:18:08;;;;;;;5.82;2.08;;;17.30;99.90;;;;;;5051972;28;20076;-58
2022/07/21 04:20:33;;;;;;;6.18;1.85;;;17.30;99.90;;;;;;5040104;28;20021;-58
2022/07/21 04:23:00;;;;;;;5.60;2.30;;;17.30;99.90;;;;;;5041758;28;20431;-59
2022/07/21 04:25:26;;;;;;;4.60;2.03;;;17.30;99.90;;;;;;5039132;28;20130;-58
2022/07/21 04:27:52;;;;;;;5.75;1.73;;;17.20;99.90;;;;;;5040221;28;20476;-58
2022/07/21 04:30:20;;;;;;;5.60;1.67;;;17.20;99.90;;;;;;5034599;28;20041;-58
2022/07/21 04:32:46;;;;;;;5.40;2.15;;;17.20;99.90;;;;;;5051981;28;20098;-58
2022/07/21 04:35:13;;;;;;;4.72;1.75;;;17.20;99.90;;;;;;5042201;28;20037;-58
2022/07/21 04:37:38;;;;;;;6.68;2.83;;;17.20;99.90;;;;;;5043003;28;20070;-58
2022/07/21 04:40:06;;;;;;;3.80;1.92;;;17.20;99.90;;;;;;5045074;28;20431;-58
2022/07/21 04:42:32;;;;;;;7.93;1.77;;;17.20;99.90;;;;;;5039403;28;20365;-58
2022/07/21 04:44:57;;;;;;;7.00;2.28;;;17.20;99.90;;;;;;5036066;28;20032;-58
2022/07/21 04:47:23;;;;;;;2.95;1.58;;;17.20;99.90;;;;;;5031946;28;20051;-57
2022/07/21 04:49:49;;;;;;;8.40;2.33;;;17.20;99.90;;;;;;5032215;28;20554;-58
2022/07/21 04:52:15;;;;;;;4.80;1.60;;;17.20;99.90;;;;;;5039609;28;20028;-57
2022/07/21 04:54:40;;;;;;;6.25;1.75;;;17.20;99.90;;;;;;5032652;28;20037;-58
2022/07/21 04:57:06;;;;;;;6.55;2.30;;;17.20;99.90;;;;;;5036615;28;20030;-58
2022/07/21 04:59:33;;;;;;;2.38;1.25;;;17.20;99.90;;;;;;5034977;28;20037;-57
2022/07/21 05:02:00;;;;;;;4.70;1.73;;;17.20;99.90;;;;;;5035797;28;20021;-59
2022/07/21 05:04:25;;;;;;;7.45;1.60;;;17.20;99.90;;;;;;5032390;28;20485;-60
2022/07/21 05:06:51;;;;;;;6.03;2.00;;;17.20;99.90;;;;;;5031728;28;20119;-60
2022/07/21 05:09:17;;;;;;;4.20;1.98;;;17.20;99.90;;;;;;5039410;28;20065;-60
2022/07/21 05:11:43;;;;;;;6.60;1.42;;;17.30;99.90;;;;;;5036431;28;20021;-59
2022/07/21 05:14:09;;;;;;;4.40;1.92;;;17.30;99.90;;;;;;5032301;28;20445;-60
2022/07/21 05:16:35;;;;;;;3.65;1.60;;;17.30;99.90;;;;;;5034286;28;20042;-58
2022/07/21 05:19:01;;;;;;;3.75;1.80;;;17.30;99.90;;;;;;5036982;28;20036;-57
2022/07/21 05:21:26;;;;;;;2.75;1.40;;;17.20;99.90;;;;;;5027210;28;20038;-57
2022/07/21 05:23:52;;;;;;;5.30;1.83;;;17.20;99.90;;;;;;5031692;28;20053;-58
2022/07/21 05:26:18;;;;;;;2.60;1.45;;;17.20;99.90;;;;;;5035821;28;20357;-58
2022/07/21 05:28:44;;;;;;;5.60;1.48;;;17.20;99.90;;;;;;5035917;28;20064;-58
2022/07/21 05:31:09;;;;;;;11.80;1.92;;;17.20;99.90;;;;;;5030755;28;20036;-60
2022/07/21 05:33:36;;;;;;;5.28;2.03;;;17.20;99.90;;;;;;5046835;28;20057;-58
2022/07/21 05:36:05;;;;;;;5.88;2.50;;;17.30;99.90;;;;;;5038468;28;20041;-58
2022/07/21 05:38:31;;;;;;;7.30;1.67;;;17.30;99.90;;;;;;5036182;28;20373;-58
2022/07/21 05:40:59;;;;;;;4.38;1.73;;;17.30;99.90;;;;;;5044299;28;20457;-57
2022/07/21 05:43:26;;;;;;;6.43;1.67;;;17.30;99.90;;;;;;5035651;28;20378;-58
2022/07/21 05:45:52;;;;;;;4.00;1.30;;;17.40;99.90;;;;;;5031229;28;20037;-58
2022/07/21 05:48:18;;;;;;;4.65;1.13;;;17.30;99.90;;;;;;5033877;28;20032;-58
2022/07/21 05:50:43;;;;;;;4.05;1.20;;;17.40;99.90;;;;;;5035352;28;20041;-58
2022/07/21 05:53:09;;;;;;;4.60;1.08;;;17.40;99.90;;;;;;5033899;28;20121;-58
2022/07/21 05:55:35;;;;;;;6.40;1.67;;;17.30;99.90;;;;;;5039200;28;20108;-58
2022/07/21 05:58:01;;;;;;;4.75;1.20;;;17.30;99.90;;;;;;5041720;28;20373;-58
2022/07/21 06:00:26;;;;;;;3.00;1.38;;;17.30;99.90;;;;;;5033091;28;20117;-58
2022/07/21 06:02:52;;;;;;;5.07;1.58;;;17.20;99.90;;;;;;5031040;28;20029;-58
2022/07/21 06:05:18;;;;;;;5.13;1.33;;;17.20;99.90;;;;;;5032303;28;20017;-58
2022/07/21 06:07:43;;;;;;;7.38;2.00;;;17.30;99.90;;;;;;5035730;28;20029;-58
2022/07/21 06:10:10;;;;;;;5.93;1.77;;;17.30;99.90;;;;;;5031724;28;20132;-58
2022/07/21 06:12:36;;;;;;;6.68;2.40;;;17.30;99.90;;;;;;5033466;28;20460;-61
2022/07/21 06:15:01;;;;;;;4.40;1.10;;;17.30;99.90;;;;;;5028620;28;20032;-59
2022/07/21 06:17:31;;;;;;;5.47;1.83;;;17.20;99.90;;;;;;5028662;28;20100;-58
2022/07/21 06:19:57;;;;;;;6.85;1.45;;;17.30;99.90;;;;;;5033212;28;20537;-58
2022/07/21 06:22:24;;;;;;;7.82;1.80;;;17.30;99.90;;;;;;5029292;28;20037;-58
2022/07/21 06:24:49;;;;;;;3.53;1.95;;;17.30;99.90;;;;;;5031378;28;20050;-58
2022/07/21 06:27:15;;;;;;;10.00;1.48;;;17.40;99.90;;;;;;5029727;28;20131;-57
2022/07/21 06:29:41;;;;;;;4.38;1.50;;;17.40;99.90;;;;;;5035892;28;20119;-57
2022/07/21 06:32:06;;;;;;;5.90;1.80;;;17.50;99.90;;;;;;5028554;28;20032;-58
2022/07/21 06:34:32;;;;;;;12.20;2.33;;;17.40;99.90;;;;;;5034170;28;20468;-57
2022/07/21 06:36:58;;;;;;;8.82;1.65;;;17.60;99.90;;;;;;5029459;28;20088;-58
2022/07/21 06:39:23;;;;;;;4.88;1.73;;;17.60;99.90;;;;;;5033059;28;20025;-58
2022/07/21 06:41:49;;;;;;;6.63;1.85;;;17.70;99.90;;;;;;5038443;28;20021;-58
2022/07/21 06:44:14;;;;;;;4.53;1.95;;;17.60;99.90;;;;;;5035681;28;20125;-57
2022/07/21 06:46:40;;;;;;;7.90;2.65;;;17.80;99.90;;;;;;5029545;28;20075;-58
2022/07/21 06:49:06;;;;;;;5.63;1.45;;;17.80;99.90;;;;;;5036001;28;20106;-58
2022/07/21 06:51:31;;;;;;;4.55;2.33;;;17.90;99.90;;;;;;5031711;28;20420;-58
2022/07/21 06:53:57;;;;;;;15.55;1.80;;;17.90;99.90;;;;;;5031220;28;20021;-58
2022/07/21 06:56:23;;;;;;;7.47;2.55;;;18.00;99.90;;;;;;5026673;28;20045;-58
2022/07/21 06:58:48;;;;;;;6.10;2.30;;;18.00;99.90;;;;;;5037711;28;20499;-58
2022/07/21 07:01:16;;;;;;;5.50;1.48;;;18.10;99.90;;;;;;5040868;28;20021;-58
2022/07/21 07:03:43;;;;;;;5.80;1.90;;;18.30;99.90;;;;;;5040526;28;20093;-58
2022/07/21 07:06:09;;;;;;;5.95;1.42;;;18.50;99.90;;;;;;5033988;28;20021;-58
2022/07/21 07:08:36;;;;;;;7.28;3.08;;;18.50;99.90;;;;;;5029389;28;20029;-58
2022/07/21 07:11:02;;;;;;;6.47;1.83;;;18.50;99.90;;;;;;5038077;28;20018;-57
2022/07/21 07:13:28;;;;;;;6.30;2.00;;;18.50;99.90;;;;;;5030083;28;20022;-58
2022/07/21 07:15:54;;;;;;;5.53;1.98;;;18.50;99.90;;;;;;5032859;28;20377;-58
2022/07/21 07:18:21;;;;;;;8.05;2.15;;;18.50;99.90;;;;;;5033295;28;20029;-58
2022/07/21 07:20:47;;;;;;;9.82;2.67;;;18.70;99.90;;;;;;5037561;28;20509;-58
2022/07/21 07:23:13;;;;;;;3.67;1.60;;;18.90;99.90;;;;;;5022934;28;20021;-58
2022/07/21 07:25:38;;;;;;;5.55;3.28;;;19.00;99.90;;;;;;5032288;28;20025;-58
2022/07/21 07:28:05;;;;;;;5.50;1.88;;;19.00;99.90;;;;;;5034681;28;20489;-57
2022/07/21 07:30:30;;;;;;;7.47;1.90;;;19.20;99.90;;;;;;5027543;28;20123;-57
2022/07/21 07:32:56;;;;;;;8.13;1.90;;;19.40;99.90;;;;;;5037191;28;20481;-58
2022/07/21 07:35:22;;;;;;;3.28;1.50;;;19.40;99.90;;;;;;5039142;28;20031;-58
2022/07/21 07:37:48;;;;;;;5.45;1.45;;;19.10;99.90;;;;;;5029590;28;20079;-58
2022/07/21 07:40:17;;;;;;;7.78;1.80;;;19.30;99.90;;;;;;5027759;28;20075;-58
2022/07/21 07:42:44;;;;;;;4.75;1.50;;;19.40;99.90;;;;;;5037843;28;20021;-58
2022/07/21 07:45:10;;;;;;;6.20;1.40;;;19.50;99.90;;;;;;5030694;28;20084;-59
2022/07/21 07:47:36;;;;;;;7.65;1.77;;;19.50;99.90;;;;;;5018972;28;20033;-59
2022/07/21 07:50:04;;;;;;;9.10;2.10;;;19.50;99.90;;;;;;5036738;28;20133;-58
2022/07/21 07:52:30;;;;;;;3.75;1.50;;;19.60;99.90;;;;;;5037745;28;20637;-60
2022/07/21 07:54:56;;;;;;;2.95;1.55;;;19.60;99.90;;;;;;5035786;28;20432;-58
2022/07/21 07:57:22;;;;;;;7.20;2.30;;;19.70;99.90;;;;;;5029212;28;20090;-58
2022/07/21 07:59:47;;;;;;;4.45;1.50;;;19.80;99.90;;;;;;5030977;28;20528;-58
2022/07/21 08:02:13;;;;;;;3.72;2.00;;;19.70;99.90;;;;;;5039065;28;20029;-58
2022/07/21 08:04:40;;;;;;;7.10;2.33;;;19.80;99.90;;;;;;5035594;28;20174;-59
2022/07/21 08:07:07;;;;;;;7.47;1.88;;;19.80;99.90;;;;;;5029228;28;20032;-57
2022/07/21 08:09:33;;;;;;;6.10;2.13;;;20.00;99.90;;;;;;5030353;28;20041;-58
2022/07/21 08:11:59;;;;;;;5.65;2.17;;;20.00;99.90;;;;;;5036419;28;20041;-58
2022/07/21 08:14:25;;;;;;;9.10;2.40;;;20.10;99.90;;;;;;5038001;28;20381;-59
2022/07/21 08:16:50;;;;;;;6.15;2.00;;;20.10;99.90;;;;;;5028725;28;20026;-58
2022/07/21 08:19:16;;;;;;;5.63;2.17;;;19.90;99.90;;;;;;5038553;28;20388;-59
2022/07/21 08:21:41;;;;;;;4.93;2.17;;;20.00;99.90;;;;;;5030850;28;20540;-59
2022/07/21 08:24:08;;;;;;;8.07;2.78;;;20.10;99.90;;;;;;5029726;28;20448;-59
2022/07/21 08:26:33;;;;;;;5.80;2.47;;;20.20;99.90;;;;;;5026807;28;20025;-58
2022/07/21 08:28:59;;;;;;;9.95;2.40;;;20.40;99.90;;;;;;5027232;28;20426;-58
2022/07/21 08:31:25;;;;;;;5.32;2.28;;;20.40;99.90;;;;;;5025530;28;20385;-58
2022/07/21 08:33:52;;;;;;;7.93;2.38;;;20.50;99.90;;;;;;5027182;28;20072;-58
2022/07/21 08:36:18;;;;;;;7.95;2.80;;;20.60;99.90;;;;;;5030366;28;20436;-59
2022/07/21 08:38:44;;;;;;;9.10;2.50;;;20.70;99.90;;;;;;5030709;28;20029;-59
2022/07/21 08:41:10;;;;;;;7.18;2.55;;;20.60;99.90;;;;;;5034626;28;20030;-59
2022/07/21 08:43:36;;;;;;;7.65;2.38;;;20.70;99.90;;;;;;5027817;28;20057;-59
2022/07/21 08:46:03;;;;;;;9.65;2.20;;;20.80;99.90;;;;;;5021642;28;20501;-57
2022/07/21 08:48:29;;;;;;;9.07;2.58;;;20.80;99.90;;;;;;5025640;28;20029;-57
2022/07/21 08:50:56;;;;;;;5.55;2.42;;;21.10;99.90;;;;;;5025286;28;20037;-57
2022/07/21 08:53:22;;;;;;;8.65;2.70;;;21.10;99.90;;;;;;5027336;28;20017;-58
2022/07/21 08:55:48;;;;;;;10.10;2.30;;;21.20;99.90;;;;;;5030516;28;20025;-60
2022/07/21 08:58:15;;;;;;;9.55;2.60;;;21.50;99.90;;;;;;5024629;28;20037;-58
2022/07/21 09:00:43;;;;;;;7.65;2.60;;;21.50;99.90;;;;;;5027320;28;20033;-58
2022/07/21 09:03:14;;;;;;;7.22;2.35;;;21.60;99.90;;;;;;5028749;28;20120;-59
2022/07/21 09:05:42;;;;;;;4.72;2.10;;;21.70;99.90;;;;;;5026210;28;20066;-58
2022/07/21 09:08:08;;;;;;;6.60;2.10;;;21.80;99.90;;;;;;5027798;28;20529;-58
2022/07/21 09:10:34;;;;;;;5.60;2.15;;;21.90;99.90;;;;;;5027157;28;20072;-59
2022/07/21 09:13:04;;;;;;;5.88;2.10;;;22.00;99.90;;;;;;5029388;28;20525;-58
2022/07/21 09:15:33;;;;;;;5.18;2.33;;;22.20;99.90;;;;;;5026549;28;20037;-59
2022/07/21 09:18:16;;;;;;;4.18;1.63;;;22.20;99.90;;;;;;5031073;28;20087;-59
2022/07/21 09:20:51;;;;;;;5.03;2.08;;;22.30;99.90;;;;;;5030241;28;20073;-59
2022/07/21 09:23:19;;;;;;;5.57;2.38;;;22.50;99.90;;;;;;5026714;28;20040;-59
2022/07/21 09:25:47;;;;;;;5.65;2.65;;;22.60;99.90;;;;;;5027200;28;20041;-59
2022/07/21 09:28:18;;;;;;;5.60;2.30;;;22.50;99.90;;;;;;5023068;28;20049;-60
2022/07/21 09:30:59;;;;;;;6.13;2.42;;;22.60;99.90;;;;;;5024899;28;20095;-59
2022/07/21 09:33:37;;;;;;;8.35;2.35;;;22.60;99.90;;;;;;5026513;28;20033;-58
2022/07/21 09:36:04;;;;;;;4.45;1.98;;;22.70;99.90;;;;;;5027677;28;20112;-58
2022/07/21 09:38:32;;;;;;;4.93;2.63;;;22.60;99.90;;;;;;5026870;28;21553;-58
2022/07/21 09:41:05;;;;;;;5.70;2.53;;;22.90;99.90;;;;;;5026073;28;20049;-58
2022/07/21 09:43:33;;;;;;;6.25;2.20;;;23.10;99.90;;;;;;5024359;28;20381;-59
2022/07/21 09:46:04;;;;;;;6.65;2.40;;;23.00;99.90;;;;;;5028837;28;20382;-59
2022/07/21 09:48:34;;;;;;;8.13;2.42;;;22.90;99.90;;;;;;5026976;28;20032;-61
2022/07/21 09:51:19;;;;;;;8.88;2.95;;;23.30;99.90;;;;;;5029503;28;20039;-58
2022/07/21 09:53:58;;;;;;;6.68;2.45;;;23.40;99.90;;;;;;5029029;28;20168;-59
2022/07/21 09:56:25;;;;;;;5.60;2.33;;;23.50;99.90;;;;;;5026138;28;20034;-58
2022/07/21 09:58:53;;;;;;;6.30;2.55;;;23.50;99.90;;;;;;5027056;28;20386;-58
2022/07/21 10:01:19;;;;;;;7.00;2.47;;;23.60;99.90;;;;;;5025250;28;20021;-58
2022/07/21 10:03:46;;;;;;;6.88;2.42;;;23.80;99.90;;;;;;5026499;28;20048;-58
2022/07/21 10:06:14;;;;;;;8.38;2.53;;;23.70;99.90;;;;;;5025143;28;20112;-59
2022/07/21 10:08:41;;;;;;;5.75;2.00;;;24.00;99.90;;;;;;5028081;28;20029;-59
2022/07/21 10:11:07;;;;;;;7.45;2.53;;;24.30;99.90;;;;;;5028144;28;20116;-58
2022/07/21 10:13:33;;;;;;;4.88;2.50;;;24.60;99.90;;;;;;5026767;28;20037;-58
2022/07/21 10:16:00;;;;;;;6.38;2.22;;;24.80;99.90;;;;;;5028927;28;20030;-58
2022/07/21 10:18:32;;;;;;;5.63;2.00;;;24.80;99.90;;;;;;5026559;28;20392;-59
2022/07/21 10:21:06;;;;;;;4.53;2.28;;;25.10;99.90;;;;;;5027103;28;20030;-59
2022/07/21 10:23:39;;;;;;;13.35;3.30;;;25.30;99.90;;;;;;5026992;28;20045;-58
2022/07/21 10:26:06;;;;;;;5.85;2.72;;;25.50;99.90;;;;;;5026717;28;20017;-58
2022/07/21 10:28:33;;;;;;;7.80;2.75;;;25.80;99.90;;;;;;5025851;28;20033;-59
2022/07/21 10:31:11;;;;;;;8.13;3.00;;;26.00;99.90;;;;;;5026258;28;20033;-58
2022/07/21 10:33:45;;;;;;;3.85;1.90;;;26.20;99.90;;;;;;5027792;28;20084;-58
2022/07/21 10:36:26;;;;;;;13.00;2.85;;;25.30;99.90;;;;;;5025606;28;20068;-59
2022/07/21 10:39:17;;;;;;;7.30;2.80;;;26.10;99.90;;;;;;5025664;28;20038;-58
2022/07/21 10:41:54;;;;;;;7.20;2.45;;;26.50;99.90;;;;;;5025791;28;20037;-59
2022/07/21 10:44:32;;;;;;;4.68;2.85;;;26.80;99.90;;;;;;5029124;28;20227;-58
2022/07/21 10:47:08;;;;;;;4.65;2.88;;;27.10;99.20;;;;;;5028523;28;20036;-59
2022/07/21 10:49:52;;;;;;;5.50;2.67;;;27.10;98.60;;;;;;5022839;28;20044;-59
2022/07/21 10:52:39;;;;;;;7.90;2.25;;;26.90;98.90;;;;;;5026111;28;20116;-60
2022/07/21 10:55:28;;;;;;;4.70;2.50;;;27.10;98.50;;;;;;5026524;28;20029;-58
2022/07/21 10:58:12;;;;;;;5.15;2.60;;;26.90;97.80;;;;;;5024463;28;20025;-59
2022/07/21 11:00:38;;;;;;;7.13;2.35;;;26.90;98.10;;;;;;5027954;28;20030;-58
2022/07/21 11:03:33;;;;;;;5.57;2.30;;;26.80;97.10;;;;;;5027160;28;20018;-59
2022/07/21 11:06:24;;;;;;;5.13;2.67;;;27.00;97.10;;;;;;5022923;28;20088;-59
2022/07/21 11:08:51;;;;;;;4.70;2.60;;;27.00;97.80;;;;;;5029037;28;20088;-59
2022/07/21 11:11:21;;;;;;;9.18;2.85;;;26.80;97.60;;;;;;5016808;28;20038;-60
2022/07/21 11:14:00;;;;;;;8.13;2.72;;;26.60;98.10;;;;;;5026267;28;20094;-59
2022/07/21 11:16:41;;;;;;;5.93;2.60;;;26.70;97.80;;;;;;5026553;28;20435;-58
2022/07/21 11:19:49;;;;;;;7.57;2.60;;;26.80;97.10;;;;;;5026800;28;20083;-59
2022/07/21 11:22:26;;;;;;;5.70;2.60;;;27.20;96.40;;;;;;5023220;28;20033;-58
2022/07/21 11:25:01;;;;;;;12.98;3.08;;;27.60;95.80;;;;;;5024142;28;20041;-59
2022/07/21 11:27:30;;;;;;;3.70;2.75;;;28.50;94.50;;;;;;5027091;28;20071;-59
2022/07/21 11:29:59;;;;;;;6.45;2.78;;;29.20;92.40;;;;;;5025697;28;20473;-58
2022/07/21 11:32:25;;;;;;;10.05;3.15;;;29.60;90.80;;;;;;5018693;28;20073;-58
2022/07/21 11:34:56;;;;;;;4.95;2.40;;;29.20;91.10;;;;;;5025074;28;20038;-58
2022/07/21 11:37:41;;;;;;;12.27;2.85;;;28.70;91.40;;;;;;5026888;28;20060;-59
2022/07/21 11:40:16;;;;;;;5.63;3.17;;;28.50;92.00;;;;;;5026438;28;20034;-60
2022/07/21 11:42:44;;;;;;;6.70;2.88;;;28.50;92.00;;;;;;5028725;28;20038;-58
2022/07/21 11:45:11;;;;;;;8.00;5.03;;;28.40;92.20;;;;;;5026597;28;20095;-58
2022/07/21 11:47:38;;;;;;;6.95;2.70;;;28.10;92.40;;;;;;5026101;28;20068;-59
2022/07/21 11:50:07;;;;;;;9.45;2.90;;;28.20;92.80;;;;;;5026904;28;20370;-59
2022/07/21 11:52:36;;;;;;;5.18;3.13;;;28.00;92.80;;;;;;5024272;28;20036;-59
2022/07/21 11:55:04;;;;;;;6.90;2.78;;;27.80;93.10;;;;;;5023309;28;20045;-59
2022/07/21 11:57:30;;;;;;;5.43;2.50;;;27.40;94.20;;;;;;5026744;28;20099;-59
2022/07/21 11:59:58;;;;;;;4.18;2.70;;;27.20;95.00;;;;;;5027441;28;21284;-63
2022/07/21 12:02:29;;;;;;;5.60;2.65;;;26.90;95.10;;;;;;5025832;28;20100;-59
2022/07/21 12:05:00;;;;;;;13.40;3.08;;;26.90;95.40;;;;;;5025446;28;20065;-59
2022/07/21 12:07:33;;;;;;;4.97;2.90;;;27.00;95.90;;;;;;5024521;28;20033;-59
2022/07/21 12:10:22;;;;;;;5.35;2.22;;;27.10;96.50;;;;;;5025720;28;20124;-59
2022/07/21 12:12:49;;;;;;;7.80;2.50;;;27.00;97.70;;;;;;5025094;28;20014;-60
2022/07/21 12:15:28;;;;;;;4.88;2.53;;;26.90;97.90;;;;;;5023004;28;20377;-59
2022/07/21 12:17:59;;;;;;;6.80;3.25;;;27.30;97.40;;;;;;5024889;28;20056;-60
2022/07/21 12:20:41;;;;;;;5.68;2.17;;;27.10;95.90;;;;;;5023112;28;20397;-59
2022/07/21 12:23:22;;;;;;;8.27;2.20;;;26.80;96.20;;;;;;5025128;28;20032;-58
2022/07/21 12:25:48;;;;;;;3.20;1.85;;;26.60;97.00;;;;;;5023942;28;20045;-59
2022/07/21 12:28:14;;;;;;;7.20;2.70;;;26.40;97.00;;;;;;5026234;28;20033;-58
2022/07/21 12:30:50;;;;;;;7.95;2.65;;;26.60;96.80;;;;;;5027678;28;20405;-58
2022/07/21 12:33:27;;;;;;;5.95;2.65;;;26.40;96.60;;;;;;5028805;28;20126;-58
2022/07/21 12:36:00;;;;;;;4.97;2.70;;;26.40;96.70;;;;;;5027688;28;20496;-58
2022/07/21 12:38:36;;;;;;;12.10;2.60;;;26.40;96.70;;;;;;5028155;28;20025;-57
2022/07/21 12:41:01;;;;;;;5.22;2.40;;;26.50;96.90;;;;;;5029139;28;20179;-58
2022/07/21 12:43:27;;;;;;;10.25;2.45;;;26.50;97.10;;;;;;5029616;28;20437;-58
2022/07/21 12:45:57;;;;;;;8.93;2.70;;;26.40;97.20;;;;;;5030740;28;20480;-59
2022/07/21 12:48:35;;;;;;;13.27;3.38;;;26.40;97.20;;;;;;5028933;28;20017;-59
2022/07/21 12:51:22;;;;;;;7.13;2.03;;;26.20;97.50;;;;;;5026578;28;20079;-59
2022/07/21 12:53:53;;;;;;;7.90;2.50;;;26.40;97.60;;;;;;5029208;28;20397;-58